Atlantic City Int. Airport (ACY)

 

Airport Diagram
Current Weather/Forecast (VFR Conditions)
METAR KACY 251754Z 05015G27KT 10SM FEW030 OVC075 23/14 A3020 RMK AO2 PK WND 06027/1752 SLP226 60000 T02280144 10244 20183 56006
TAF KACY 251720Z 2518/2618 05015G25KT P6SM BKN060 FM260100 05012G20KT P6SM SCT020 FM260700 05012KT P6SM BKN035 FM261400 05013G22KT P6SM BKN050

All Charts
General
Chart Name Download
AIRPORT DIAGRAM
TAKEOFF MINIMUMS
ALTERNATE MINIMUMS
RADAR MINIMUMS
LAHSO

Departures
Chart Name Download
ATLANTIC CITY TWO

Approaches
Chart Name Download
HI-ILS OR LOC RWY 13
ILS OR LOC RWY 13
ILS OR LOC/DME RWY 31
RNAV (RNP) Z RWY 13
RNAV (RNP) Z RWY 31
RNAV (GPS) RWY 04
RNAV (GPS) RWY 22
RNAV (GPS) Y RWY 13
RNAV (GPS) Y RWY 31
VOR/DME RWY 22
HI-VOR/DME OR TACAN RWY 31
VOR RWY 04
VOR RWY 13
VOR RWY 31
COPTER ILS OR LOC/DME RWY 13


Inbound Traffic (Arrivals)

No inbound traffic.


Outbound Traffic (Departures)

No outbound traffic.